createdAt,value
2023-07-19T00:00:33.713Z,235.72
2023-07-19T00:01:33.774Z,235.34
2023-07-19T00:02:33.834Z,234.15
2023-07-19T00:03:33.946Z,230.54
2023-07-19T00:04:33.882Z,229.69
2023-07-19T00:05:33.873Z,228.73
2023-07-19T00:06:33.921Z,225.85
2023-07-19T00:07:33.992Z,225.05
2023-07-19T00:08:33.984Z,223.06
2023-07-19T00:09:34.008Z,221.96
2023-07-19T00:10:34.033Z,218.70
2023-07-19T00:11:34.175Z,220.60
2023-07-19T00:12:42.580Z,220.91
2023-07-19T00:13:35.082Z,220.97
2023-07-19T00:14:34.167Z,220.99
2023-07-19T00:15:34.083Z,221.05
2023-07-19T00:16:34.273Z,219.76
2023-07-19T00:17:34.247Z,221.51
2023-07-19T00:18:34.109Z,221.89
2023-07-19T00:19:34.071Z,223.63
2023-07-19T00:20:34.029Z,225.97
2023-07-19T00:21:34.071Z,228.30
2023-07-19T00:22:34.047Z,227.80
2023-07-19T00:23:34.033Z,228.52
2023-07-19T00:24:34.025Z,229.24
2023-07-19T00:25:34.013Z,232.08
2023-07-19T00:26:34.029Z,232.61
2023-07-19T00:27:34.006Z,231.85
2023-07-19T00:28:33.979Z,231.82
2023-07-19T00:29:33.988Z,229.95
2023-07-19T00:30:34.017Z,230.96
2023-07-19T00:31:34.024Z,233.36
2023-07-19T00:32:34.083Z,233.77
2023-07-19T00:33:34.087Z,233.68
2023-07-19T00:34:34.199Z,232.94
2023-07-19T00:35:34.124Z,234.74
2023-07-19T00:36:34.172Z,235.42
2023-07-19T00:37:34.190Z,235.39
2023-07-19T00:38:34.209Z,236.03
2023-07-19T00:39:34.256Z,235.13
2023-07-19T00:40:34.309Z,233.35
2023-07-19T00:41:34.436Z,238.61
2023-07-19T00:42:34.476Z,238.18
2023-07-19T00:43:34.431Z,238.39
2023-07-19T00:44:34.423Z,238.16
2023-07-19T00:45:34.487Z,239.22
2023-07-19T00:46:34.448Z,240.22
2023-07-19T00:47:34.594Z,238.65
2023-07-19T00:48:34.532Z,236.93
2023-07-19T00:49:34.519Z,235.81
2023-07-19T00:50:34.400Z,234.36
2023-07-19T00:51:34.591Z,235.27
2023-07-19T00:52:34.433Z,234.55
2023-07-19T00:53:34.444Z,233.76
2023-07-19T00:54:34.576Z,232.64
2023-07-19T00:55:34.483Z,231.44
2023-07-19T00:56:34.459Z,231.04
2023-07-19T00:57:34.468Z,231.35
2023-07-19T00:58:34.601Z,230.62
2023-07-19T00:59:34.677Z,228.63
2023-07-19T01:00:34.580Z,229.65
2023-07-19T01:01:34.594Z,230.43
2023-07-19T01:02:34.813Z,230.86
2023-07-19T01:03:34.699Z,229.90
2023-07-19T01:04:34.730Z,228.00
2023-07-19T01:05:34.616Z,228.33
2023-07-19T01:06:34.743Z,226.84
2023-07-19T01:07:34.788Z,230.65
2023-07-19T01:08:34.785Z,230.94
2023-07-19T01:09:34.724Z,228.53
2023-07-19T01:10:34.663Z,229.65
2023-07-19T01:11:34.777Z,226.01
2023-07-19T01:12:34.794Z,229.68
2023-07-19T01:13:34.789Z,230.28
2023-07-19T01:14:34.784Z,230.09
2023-07-19T01:15:34.650Z,231.11
2023-07-19T01:16:34.718Z,231.76
2023-07-19T01:17:34.689Z,231.51
2023-07-19T01:18:34.666Z,231.35
2023-07-19T01:19:34.688Z,231.87
2023-07-19T01:20:34.637Z,231.88
2023-07-19T01:21:34.859Z,231.80
2023-07-19T01:22:34.825Z,230.56
2023-07-19T01:23:34.723Z,235.38
2023-07-19T01:24:34.679Z,233.04
2023-07-19T01:25:34.741Z,232.84
2023-07-19T01:26:34.677Z,233.76
2023-07-19T01:27:34.721Z,234.11
2023-07-19T01:28:34.714Z,233.18
2023-07-19T01:29:34.712Z,233.20
2023-07-19T01:30:34.720Z,238.43
2023-07-19T01:31:34.753Z,234.79
2023-07-19T01:32:34.799Z,236.12
2023-07-19T01:33:34.784Z,237.34
2023-07-19T01:34:34.732Z,238.11
2023-07-19T01:35:34.762Z,235.96
2023-07-19T01:36:34.745Z,239.50
2023-07-19T01:37:34.713Z,238.96
2023-07-19T01:38:34.734Z,239.97
2023-07-19T01:39:34.721Z,242.29
2023-07-19T01:40:34.736Z,242.02
2023-07-19T01:41:34.732Z,241.89
2023-07-19T01:42:34.758Z,242.50
2023-07-19T01:43:34.768Z,243.67
2023-07-19T01:44:34.756Z,245.55
2023-07-19T01:45:34.794Z,245.04
2023-07-19T01:46:34.772Z,244.43
2023-07-19T01:47:34.823Z,244.37
2023-07-19T01:48:34.752Z,239.30
2023-07-19T01:49:34.802Z,239.93
2023-07-19T01:50:34.844Z,237.35
2023-07-19T01:51:34.763Z,233.00
2023-07-19T01:52:34.786Z,233.16
2023-07-19T01:53:34.771Z,231.77
2023-07-19T01:54:34.776Z,230.86
2023-07-19T01:55:34.784Z,230.56
2023-07-19T01:56:34.779Z,229.42
2023-07-19T01:57:34.786Z,226.44
2023-07-19T01:58:34.774Z,225.81
2023-07-19T01:59:34.778Z,225.71
2023-07-19T02:00:34.745Z,225.76
2023-07-19T02:01:34.907Z,224.85
2023-07-19T02:02:34.937Z,225.85
2023-07-19T02:03:34.849Z,226.54
2023-07-19T02:04:34.804Z,227.77
2023-07-19T02:05:34.729Z,228.01
2023-07-19T02:06:34.759Z,226.15
2023-07-19T02:07:34.760Z,227.74
2023-07-19T02:08:34.735Z,229.60
2023-07-19T02:09:34.773Z,230.23
2023-07-19T02:10:34.790Z,230.86
2023-07-19T02:11:34.780Z,230.17
2023-07-19T02:12:34.735Z,228.78
2023-07-19T02:13:34.765Z,229.19
2023-07-19T02:14:34.728Z,229.83
2023-07-19T02:15:34.745Z,229.32
2023-07-19T02:16:34.696Z,231.41
2023-07-19T02:17:34.761Z,233.21
2023-07-19T02:18:34.677Z,232.38
2023-07-19T02:19:34.722Z,232.44
2023-07-19T02:20:34.681Z,230.81
2023-07-19T02:21:34.709Z,231.65
2023-07-19T02:22:34.727Z,232.58
2023-07-19T02:23:34.672Z,235.83
2023-07-19T02:24:34.669Z,232.94
2023-07-19T02:25:34.654Z,233.61
2023-07-19T02:26:34.678Z,234.20
2023-07-19T02:27:34.663Z,233.73
2023-07-19T02:28:34.683Z,236.45
2023-07-19T02:29:34.677Z,234.94
2023-07-19T02:30:34.698Z,234.78
2023-07-19T02:31:34.768Z,235.74
2023-07-19T02:32:34.668Z,234.00
2023-07-19T02:33:34.642Z,234.59
2023-07-19T02:34:34.654Z,231.22
2023-07-19T02:35:34.638Z,234.89
2023-07-19T02:36:34.646Z,233.10
2023-07-19T02:37:34.628Z,231.96
2023-07-19T02:38:34.646Z,233.25
2023-07-19T02:39:34.610Z,232.27
2023-07-19T02:40:34.636Z,233.61
2023-07-19T02:41:34.644Z,237.03
2023-07-19T02:42:34.626Z,236.23
2023-07-19T02:43:34.608Z,235.83
2023-07-19T02:44:34.592Z,235.82
2023-07-19T02:45:34.603Z,237.09
2023-07-19T02:46:35.095Z,237.60
2023-07-19T02:47:34.624Z,235.27
2023-07-19T02:48:34.604Z,240.07
2023-07-19T02:49:34.599Z,239.86
2023-07-19T02:50:34.617Z,243.94
2023-07-19T02:51:34.569Z,242.26
2023-07-19T02:52:34.600Z,244.79
2023-07-19T02:53:34.586Z,244.61
2023-07-19T02:54:34.561Z,244.40
2023-07-19T02:55:34.568Z,244.99
2023-07-19T02:56:34.582Z,245.95
2023-07-19T02:57:34.566Z,245.75
2023-07-19T02:58:34.565Z,243.52
2023-07-19T02:59:34.579Z,245.03
2023-07-19T03:00:34.625Z,246.26
2023-07-19T03:01:34.599Z,246.73
2023-07-19T03:02:34.596Z,247.01
2023-07-19T03:03:34.788Z,247.86
2023-07-19T03:04:34.523Z,248.03
2023-07-19T03:05:34.546Z,248.13
2023-07-19T03:06:34.536Z,247.59
2023-07-19T03:07:34.553Z,245.65
2023-07-19T03:08:34.552Z,245.36
2023-07-19T03:09:34.571Z,244.60
2023-07-19T03:10:34.541Z,245.70
2023-07-19T03:11:34.516Z,246.44
2023-07-19T03:12:34.513Z,246.08
2023-07-19T03:13:34.505Z,246.11
2023-07-19T03:14:34.534Z,245.45
2023-07-19T03:15:34.555Z,243.28
2023-07-19T03:16:34.562Z,243.05
2023-07-19T03:17:34.502Z,241.68
2023-07-19T03:18:34.515Z,243.09
2023-07-19T03:19:34.486Z,239.81
2023-07-19T03:20:34.491Z,241.89
2023-07-19T03:21:34.491Z,243.87
2023-07-19T03:22:34.541Z,243.90
2023-07-19T03:23:34.485Z,244.87
2023-07-19T03:24:34.524Z,242.38
2023-07-19T03:25:34.498Z,246.15
2023-07-19T03:26:34.480Z,245.72
2023-07-19T03:27:34.460Z,246.58
2023-07-19T03:28:34.484Z,248.11
2023-07-19T03:29:34.488Z,248.24
2023-07-19T03:30:34.534Z,247.25
2023-07-19T03:31:34.496Z,248.12
2023-07-19T03:32:34.560Z,250.00
2023-07-19T03:33:34.457Z,249.83
2023-07-19T03:34:34.453Z,248.75
2023-07-19T03:35:34.449Z,248.86
2023-07-19T03:36:34.486Z,245.30
2023-07-19T03:37:34.442Z,246.08
2023-07-19T03:38:34.490Z,247.35
2023-07-19T03:39:34.472Z,247.20
2023-07-19T03:40:34.494Z,248.85
2023-07-19T03:41:34.480Z,248.72
2023-07-19T03:42:34.474Z,247.24
2023-07-19T03:43:34.485Z,249.55
2023-07-19T03:44:34.484Z,248.07
2023-07-19T03:45:34.487Z,247.62
2023-07-19T03:46:34.536Z,249.54
2023-07-19T03:47:34.519Z,247.90
2023-07-19T03:48:34.576Z,249.37
2023-07-19T03:49:34.597Z,247.60
2023-07-19T03:50:34.476Z,247.53
2023-07-19T03:51:34.467Z,247.47
2023-07-19T03:52:34.511Z,248.75
2023-07-19T03:53:34.479Z,247.00
2023-07-19T03:54:34.512Z,246.87
2023-07-19T03:55:34.496Z,248.00
2023-07-19T03:56:34.475Z,248.78
2023-07-19T03:57:34.478Z,247.81
2023-07-19T03:58:34.536Z,244.83
2023-07-19T03:59:34.471Z,247.53
2023-07-19T04:00:34.494Z,245.05
2023-07-19T04:01:34.488Z,246.37
2023-07-19T04:02:34.529Z,247.32
2023-07-19T04:03:34.562Z,246.78
2023-07-19T04:04:34.499Z,245.52
2023-07-19T04:05:34.513Z,246.20
2023-07-19T04:06:34.501Z,247.33
2023-07-19T04:07:34.502Z,247.76
2023-07-19T04:08:34.490Z,245.92
2023-07-19T04:09:34.516Z,246.68
2023-07-19T04:10:34.490Z,247.14
2023-07-19T04:11:34.503Z,246.36
2023-07-19T04:12:34.478Z,246.28
2023-07-19T04:13:34.503Z,247.06
2023-07-19T04:14:34.538Z,244.32
2023-07-19T04:15:34.511Z,243.60
2023-07-19T04:16:34.538Z,244.82
2023-07-19T04:17:34.529Z,244.68
2023-07-19T04:18:34.514Z,244.54
2023-07-19T04:19:34.499Z,245.59
2023-07-19T04:20:34.531Z,246.38
2023-07-19T04:21:34.476Z,245.52
2023-07-19T04:22:34.585Z,245.09
2023-07-19T04:23:34.464Z,245.83
2023-07-19T04:24:34.513Z,247.34
2023-07-19T04:25:34.486Z,248.53
2023-07-19T04:26:34.474Z,246.23
2023-07-19T04:27:34.484Z,249.42
2023-07-19T04:28:34.496Z,246.11
2023-07-19T04:29:34.485Z,248.94
2023-07-19T04:30:34.471Z,249.47
2023-07-19T04:31:34.483Z,248.83
2023-07-19T04:32:34.555Z,248.09
2023-07-19T04:33:34.601Z,249.43
2023-07-19T04:34:34.506Z,247.35
2023-07-19T04:35:34.495Z,249.23
2023-07-19T04:36:34.483Z,249.27
2023-07-19T04:37:34.606Z,248.47
2023-07-19T04:38:34.481Z,247.44
2023-07-19T04:39:34.493Z,249.86
2023-07-19T04:40:34.516Z,249.83
2023-07-19T04:41:34.484Z,248.70
2023-07-19T04:42:34.471Z,247.13
2023-07-19T04:43:34.461Z,248.78
2023-07-19T04:44:34.465Z,247.15
2023-07-19T04:45:34.483Z,245.22
2023-07-19T04:46:34.624Z,246.60
2023-07-19T04:47:34.557Z,245.97
2023-07-19T04:48:34.483Z,246.87
2023-07-19T04:49:34.466Z,247.39
2023-07-19T04:50:34.502Z,245.77
2023-07-19T04:51:34.483Z,241.96
2023-07-19T04:52:34.481Z,242.78
2023-07-19T04:53:34.505Z,242.61
2023-07-19T04:54:34.496Z,243.81
2023-07-19T04:55:34.474Z,242.80
2023-07-19T04:56:34.503Z,242.59
2023-07-19T04:57:34.513Z,241.77
2023-07-19T04:58:34.478Z,241.84
2023-07-19T04:59:34.498Z,240.85
2023-07-19T05:00:34.504Z,242.73
2023-07-19T05:01:34.540Z,240.56
2023-07-19T05:02:34.555Z,241.93
2023-07-19T05:03:34.519Z,240.46
2023-07-19T05:04:34.522Z,242.91
2023-07-19T05:05:34.618Z,244.19
2023-07-19T05:06:34.512Z,241.23
2023-07-19T05:07:34.554Z,242.33
2023-07-19T05:08:34.562Z,243.29
2023-07-19T05:09:34.545Z,241.68
2023-07-19T05:10:34.538Z,240.54
2023-07-19T05:11:34.554Z,241.87
2023-07-19T05:12:34.557Z,240.73
2023-07-19T05:13:34.565Z,242.35
2023-07-19T05:14:34.569Z,238.95
2023-07-19T05:15:34.570Z,240.55
2023-07-19T05:16:34.673Z,240.66
2023-07-19T05:17:34.625Z,242.11
2023-07-19T05:18:34.593Z,242.89
2023-07-19T05:19:34.599Z,245.26
2023-07-19T05:20:34.592Z,244.49
2023-07-19T05:21:34.638Z,245.03
2023-07-19T05:22:34.786Z,242.94
2023-07-19T05:23:34.641Z,244.22
2023-07-19T05:24:34.622Z,247.21
2023-07-19T05:25:34.603Z,245.49
2023-07-19T05:26:34.645Z,249.00
2023-07-19T05:27:34.621Z,249.29
2023-07-19T05:28:34.612Z,249.38
2023-07-19T05:29:34.602Z,248.82
2023-07-19T05:30:34.626Z,245.78
2023-07-19T05:31:34.720Z,248.14
2023-07-19T05:32:34.669Z,248.75
2023-07-19T05:33:34.659Z,249.52
2023-07-19T05:34:34.641Z,246.59
2023-07-19T05:35:34.643Z,249.62
2023-07-19T05:36:34.640Z,248.56
2023-07-19T05:37:34.634Z,247.74
2023-07-19T05:38:34.662Z,248.23
2023-07-19T05:39:34.632Z,249.94
2023-07-19T05:40:34.659Z,249.93
2023-07-19T05:41:34.664Z,249.03
2023-07-19T05:42:34.651Z,249.48
2023-07-19T05:43:34.700Z,245.71
2023-07-19T05:44:34.666Z,246.89
2023-07-19T05:45:34.722Z,247.31
2023-07-19T05:46:34.691Z,247.08
2023-07-19T05:47:34.740Z,247.34
2023-07-19T05:48:34.729Z,247.65
2023-07-19T05:49:34.722Z,249.34
2023-07-19T05:50:34.731Z,247.58
2023-07-19T05:51:34.730Z,248.54
2023-07-19T05:52:34.725Z,248.71
2023-07-19T05:53:34.742Z,248.77
2023-07-19T05:54:34.770Z,249.11
2023-07-19T05:55:34.811Z,247.31
2023-07-19T05:56:34.748Z,249.17
2023-07-19T05:57:34.741Z,248.48
2023-07-19T05:58:34.753Z,249.43
2023-07-19T05:59:34.749Z,247.41
2023-07-19T06:00:34.757Z,247.71
2023-07-19T06:01:35.516Z,248.36
2023-07-19T06:02:47.769Z,249.57
2023-07-19T06:03:35.900Z,249.80
2023-07-19T06:04:34.820Z,250.20
2023-07-19T06:05:34.775Z,250.16
2023-07-19T06:06:34.821Z,250.19
2023-07-19T06:07:34.698Z,253.41
2023-07-19T06:08:34.726Z,247.83
2023-07-19T06:09:34.718Z,248.84
2023-07-19T06:10:34.697Z,247.71
2023-07-19T06:11:34.740Z,248.08
2023-07-19T06:12:34.699Z,249.01
2023-07-19T06:13:34.682Z,246.35
2023-07-19T06:14:34.668Z,248.31
2023-07-19T06:15:34.695Z,246.11
2023-07-19T06:16:34.653Z,248.05
2023-07-19T06:17:34.716Z,245.98
2023-07-19T06:18:34.670Z,247.96
2023-07-19T06:19:34.656Z,246.43
2023-07-19T06:20:34.643Z,249.32
2023-07-19T06:21:34.627Z,245.31
2023-07-19T06:22:34.664Z,245.87
2023-07-19T06:23:34.745Z,244.91
2023-07-19T06:24:34.632Z,244.26
2023-07-19T06:25:34.610Z,242.30
2023-07-19T06:26:34.584Z,241.14
2023-07-19T06:27:34.578Z,239.88
2023-07-19T06:28:34.636Z,239.53
2023-07-19T06:29:34.568Z,237.97
2023-07-19T06:30:34.575Z,238.97
2023-07-19T06:31:34.615Z,237.00
2023-07-19T06:32:34.596Z,235.15
2023-07-19T06:33:34.572Z,234.09
2023-07-19T06:34:34.553Z,233.35
2023-07-19T06:35:34.653Z,230.88
2023-07-19T06:36:34.550Z,229.88
2023-07-19T06:37:34.582Z,228.90
2023-07-19T06:38:34.643Z,229.87
2023-07-19T06:39:34.677Z,229.37
2023-07-19T06:40:34.710Z,228.76
2023-07-19T06:41:34.728Z,227.18
2023-07-19T06:42:34.788Z,229.38
2023-07-19T06:43:34.800Z,227.91
2023-07-19T06:44:34.799Z,230.02
2023-07-19T06:45:34.821Z,230.47
2023-07-19T06:46:34.889Z,232.43
2023-07-19T06:47:34.877Z,237.10
2023-07-19T06:48:34.855Z,237.83
2023-07-19T06:49:34.922Z,240.03
2023-07-19T06:50:34.931Z,241.29
2023-07-19T06:51:34.988Z,240.69
2023-07-19T06:52:34.975Z,242.88
2023-07-19T06:53:34.994Z,243.07
2023-07-19T06:54:35.015Z,242.74
2023-07-19T06:55:35.094Z,242.46
2023-07-19T06:56:35.121Z,243.19
2023-07-19T06:57:35.125Z,243.10
2023-07-19T06:58:35.168Z,242.80
2023-07-19T06:59:35.273Z,242.45
2023-07-19T07:00:35.347Z,243.93
2023-07-19T07:01:35.322Z,245.83
2023-07-19T07:02:35.361Z,244.41
2023-07-19T07:03:35.576Z,245.96
2023-07-19T07:04:35.444Z,247.30
2023-07-19T07:05:35.552Z,246.56
2023-07-19T07:06:35.533Z,246.35
2023-07-19T07:07:35.586Z,246.19
2023-07-19T07:08:35.619Z,243.67
2023-07-19T07:09:35.640Z,243.53
2023-07-19T07:10:35.696Z,245.11
2023-07-19T07:11:35.705Z,246.52
2023-07-19T07:12:35.756Z,243.18
2023-07-19T07:13:35.753Z,242.90
2023-07-19T07:14:35.793Z,243.40
2023-07-19T07:15:35.797Z,248.00
2023-07-19T07:16:35.894Z,248.32
2023-07-19T07:17:35.899Z,248.26
2023-07-19T07:18:35.910Z,248.76
2023-07-19T07:19:36.170Z,248.64
2023-07-19T07:20:35.966Z,248.76
2023-07-19T07:21:36.008Z,248.13
2023-07-19T07:22:36.083Z,248.12
2023-07-19T07:23:36.183Z,248.39
2023-07-19T07:24:36.150Z,247.96
2023-07-19T07:25:36.166Z,248.26
2023-07-19T07:26:36.229Z,244.48
2023-07-19T07:27:36.275Z,244.47
2023-07-19T07:28:36.322Z,243.27
2023-07-19T07:29:36.431Z,243.55
2023-07-19T07:30:36.413Z,242.36
2023-07-19T07:31:36.495Z,240.53
2023-07-19T07:32:36.594Z,240.47
2023-07-19T07:33:36.652Z,237.93
2023-07-19T07:34:36.640Z,239.16
2023-07-19T07:35:36.767Z,237.91
2023-07-19T07:36:36.757Z,240.46
2023-07-19T07:37:36.805Z,238.01
2023-07-19T07:38:36.875Z,240.54
2023-07-19T07:39:36.964Z,237.94
2023-07-19T07:40:36.994Z,240.17
2023-07-19T07:41:37.091Z,239.06
2023-07-19T07:42:37.125Z,237.07
2023-07-19T07:43:37.223Z,240.77
2023-07-19T07:44:37.240Z,239.18
2023-07-19T07:45:37.286Z,238.99
2023-07-19T07:46:37.470Z,236.38
2023-07-19T07:47:37.434Z,236.55
2023-07-19T07:48:37.502Z,234.64
2023-07-19T07:49:37.527Z,233.88
2023-07-19T07:50:37.653Z,233.65
2023-07-19T07:51:37.665Z,234.21
2023-07-19T07:52:37.739Z,232.77
2023-07-19T07:53:37.843Z,233.41
2023-07-19T07:54:37.866Z,230.94
2023-07-19T07:55:37.906Z,230.91
2023-07-19T07:56:37.953Z,229.99
2023-07-19T07:57:38.049Z,228.84
2023-07-19T07:58:38.103Z,230.16
2023-07-19T07:59:38.140Z,229.83
2023-07-19T08:00:38.237Z,231.19
2023-07-19T08:01:38.282Z,232.26
2023-07-19T08:02:38.467Z,230.87
2023-07-19T08:03:38.480Z,232.40
2023-07-19T08:04:38.444Z,231.04
2023-07-19T08:05:38.473Z,233.32
2023-07-19T08:06:38.509Z,236.08
2023-07-19T08:07:38.569Z,236.48
2023-07-19T08:08:38.583Z,235.54
2023-07-19T08:09:38.690Z,238.43
2023-07-19T08:10:38.641Z,238.62
2023-07-19T08:11:38.672Z,237.21
2023-07-19T08:12:38.716Z,238.63
2023-07-19T08:13:38.725Z,238.01
2023-07-19T08:14:38.741Z,236.16
2023-07-19T08:15:38.749Z,235.19
2023-07-19T08:16:38.787Z,234.46
2023-07-19T08:17:38.812Z,237.87
2023-07-19T08:18:38.805Z,236.80
2023-07-19T08:19:38.871Z,238.30
2023-07-19T08:20:38.819Z,235.38
2023-07-19T08:21:38.990Z,234.89
2023-07-19T08:22:38.854Z,234.19
2023-07-19T08:23:38.846Z,230.56
2023-07-19T08:24:38.843Z,230.15
2023-07-19T08:25:38.836Z,228.46
2023-07-19T08:26:38.833Z,227.06
2023-07-19T08:27:38.847Z,226.94
2023-07-19T08:28:38.829Z,224.37
2023-07-19T08:29:38.904Z,226.00
2023-07-19T08:30:38.852Z,226.72
2023-07-19T08:31:38.827Z,225.97
2023-07-19T08:32:38.910Z,228.01
2023-07-19T08:33:38.861Z,228.37
2023-07-19T08:34:38.881Z,226.27
2023-07-19T08:35:38.858Z,227.84
2023-07-19T08:36:38.881Z,229.92
2023-07-19T08:37:38.886Z,227.37
2023-07-19T08:38:38.892Z,224.11
2023-07-19T08:39:38.912Z,223.04
2023-07-19T08:40:38.928Z,226.16
2023-07-19T08:41:38.919Z,224.00
2023-07-19T08:42:38.985Z,223.42
2023-07-19T08:43:38.977Z,218.79
2023-07-19T08:44:38.964Z,217.54
2023-07-19T08:45:38.972Z,214.59
2023-07-19T08:46:39.017Z,211.14
2023-07-19T08:47:39.015Z,209.56
2023-07-19T08:48:39.028Z,207.54
2023-07-19T08:49:39.040Z,205.75
2023-07-19T08:50:39.078Z,204.02
2023-07-19T08:51:39.088Z,200.97
2023-07-19T08:52:39.102Z,199.52
2023-07-19T08:53:39.126Z,200.97
2023-07-19T08:54:39.144Z,203.57
2023-07-19T08:55:39.155Z,196.45
2023-07-19T08:56:39.166Z,198.44
2023-07-19T08:57:39.226Z,197.43
2023-07-19T08:58:39.287Z,198.68
2023-07-19T08:59:39.232Z,198.09
2023-07-19T09:00:39.249Z,198.46
2023-07-19T09:01:39.319Z,200.55
2023-07-19T09:02:39.350Z,200.91
2023-07-19T09:03:39.330Z,197.55
2023-07-19T09:04:39.405Z,199.55
2023-07-19T09:05:39.374Z,201.03
2023-07-19T09:06:39.418Z,200.33
2023-07-19T09:07:39.432Z,202.64
2023-07-19T09:08:39.452Z,202.67
2023-07-19T09:09:39.483Z,201.66
2023-07-19T09:10:39.550Z,199.63
2023-07-19T09:11:39.510Z,202.50
2023-07-19T09:12:39.611Z,201.92
2023-07-19T09:13:40.140Z,199.44
2023-07-19T09:14:39.581Z,203.08
2023-07-19T09:15:39.601Z,202.62
2023-07-19T09:16:39.606Z,204.17
2023-07-19T09:17:39.749Z,204.35
2023-07-19T09:18:40.259Z,201.68
2023-07-19T09:19:39.688Z,199.43
2023-07-19T09:20:39.698Z,202.45
2023-07-19T09:21:39.697Z,205.41
2023-07-19T09:22:39.741Z,206.72
2023-07-19T09:23:39.760Z,203.97
2023-07-19T09:24:39.757Z,201.49
2023-07-19T09:25:39.775Z,194.71
2023-07-19T09:26:39.744Z,196.65
2023-07-19T09:27:39.762Z,194.87
2023-07-19T09:28:39.781Z,195.48
2023-07-19T09:29:39.802Z,194.69
2023-07-19T09:30:39.779Z,195.62
2023-07-19T09:31:39.812Z,195.96
2023-07-19T09:32:39.820Z,192.58
2023-07-19T09:33:39.771Z,196.51
2023-07-19T09:34:39.800Z,196.34
2023-07-19T09:35:39.782Z,196.22
2023-07-19T09:36:39.787Z,194.93
2023-07-19T09:37:39.752Z,194.55
2023-07-19T09:38:39.783Z,191.73
2023-07-19T09:39:39.769Z,196.17
2023-07-19T09:40:39.744Z,194.70
2023-07-19T09:41:39.758Z,198.29
2023-07-19T09:42:39.740Z,199.43
2023-07-19T09:43:39.733Z,200.77
2023-07-19T09:44:39.758Z,199.25
2023-07-19T09:45:39.744Z,202.74
2023-07-19T09:46:39.758Z,198.57
2023-07-19T09:47:39.809Z,202.06
2023-07-19T09:48:39.871Z,200.33
2023-07-19T09:49:39.925Z,197.69
2023-07-19T09:50:39.990Z,197.97
2023-07-19T09:51:40.040Z,197.03
2023-07-19T09:52:40.093Z,200.06
2023-07-19T09:53:40.144Z,193.61
2023-07-19T09:54:40.234Z,195.13
2023-07-19T09:55:40.198Z,197.18
2023-07-19T09:56:40.265Z,195.51
2023-07-19T09:57:40.273Z,198.39
2023-07-19T09:58:40.309Z,196.89
2023-07-19T09:59:40.372Z,195.77
2023-07-19T10:00:40.384Z,194.98
2023-07-19T10:01:40.471Z,189.11
2023-07-19T10:02:40.549Z,195.64
2023-07-19T10:03:40.556Z,190.96
2023-07-19T10:04:40.614Z,190.72
2023-07-19T10:05:40.699Z,189.40
2023-07-19T10:06:40.700Z,187.76
2023-07-19T10:08:40.754Z,188.88
2023-07-19T10:09:40.708Z,190.97
2023-07-19T10:10:40.750Z,194.35
2023-07-19T10:11:40.696Z,192.49
2023-07-19T10:12:40.700Z,192.37
2023-07-19T10:13:40.725Z,193.29
2023-07-19T10:14:40.869Z,193.57
2023-07-19T10:15:40.871Z,193.84
2023-07-19T10:16:40.874Z,194.31
2023-07-19T10:17:41.001Z,193.29
2023-07-19T10:18:40.867Z,193.82
2023-07-19T10:19:40.896Z,195.59
2023-07-19T10:20:40.872Z,194.95
2023-07-19T10:21:40.869Z,190.80
2023-07-19T10:22:40.936Z,192.11
2023-07-19T10:23:40.923Z,189.40
2023-07-19T10:24:40.925Z,189.57
2023-07-19T10:25:40.961Z,186.65
2023-07-19T10:26:40.953Z,184.39
2023-07-19T10:27:40.948Z,184.79
2023-07-19T10:28:40.981Z,184.56
2023-07-19T10:29:40.995Z,181.28
2023-07-19T10:30:41.114Z,178.85
2023-07-19T10:31:41.019Z,171.72
2023-07-19T10:32:41.066Z,174.64
2023-07-19T10:33:41.131Z,165.25
2023-07-19T10:34:44.782Z,171.57
2023-07-19T10:35:41.113Z,171.63
2023-07-19T10:36:41.049Z,171.12
2023-07-19T10:37:41.047Z,171.71
2023-07-19T10:38:41.032Z,169.47
2023-07-19T10:39:41.032Z,166.93
2023-07-19T10:40:41.039Z,161.19
2023-07-19T10:41:41.006Z,156.42
2023-07-19T10:42:41.033Z,157.80
2023-07-19T10:44:40.992Z,150.32
2023-07-19T10:45:41.091Z,145.86
2023-07-19T10:46:40.997Z,135.89
2023-07-19T10:47:40.964Z,139.12
2023-07-19T10:48:42.454Z,134.87
2023-07-19T10:49:40.956Z,130.27
2023-07-19T10:50:40.972Z,126.37
2023-07-19T10:51:40.936Z,125.57
2023-07-19T10:52:40.920Z,125.79
2023-07-19T10:53:40.924Z,123.63
2023-07-19T10:54:51.252Z,123.23
2023-07-19T10:56:41.904Z,123.40
2023-07-19T10:57:40.921Z,123.81
2023-07-19T10:58:40.907Z,123.45
2023-07-19T10:59:40.878Z,122.85
2023-07-19T11:00:40.860Z,121.23
2023-07-19T11:01:41.332Z,125.86
2023-07-19T11:02:40.941Z,129.30
2023-07-19T11:03:40.896Z,125.42
2023-07-19T11:04:40.835Z,121.05
2023-07-19T11:05:40.840Z,126.27
2023-07-19T11:06:41.271Z,146.88
2023-07-19T11:07:40.861Z,174.91
2023-07-19T11:08:40.804Z,190.82
2023-07-19T11:09:40.815Z,198.44
2023-07-19T11:10:40.829Z,189.99
2023-07-19T11:11:40.848Z,179.10
2023-07-19T11:12:40.808Z,175.50
2023-07-19T11:13:40.818Z,175.37
2023-07-19T11:14:40.804Z,177.78
2023-07-19T11:15:40.830Z,177.30
2023-07-19T11:16:40.937Z,175.20
2023-07-19T11:17:40.769Z,177.53
2023-07-19T11:18:40.792Z,167.91
2023-07-19T11:19:40.769Z,163.67
2023-07-19T11:20:40.812Z,161.09
2023-07-19T11:21:40.737Z,155.79
2023-07-19T11:22:40.808Z,156.40
2023-07-19T11:23:40.732Z,157.64
2023-07-19T11:24:40.722Z,158.04
2023-07-19T11:25:40.762Z,153.14
2023-07-19T11:26:40.737Z,156.63
2023-07-19T11:27:40.689Z,151.77
2023-07-19T11:28:40.677Z,151.66
2023-07-19T11:29:40.687Z,153.61
2023-07-19T11:30:40.788Z,160.41
2023-07-19T11:31:40.748Z,148.50
2023-07-19T11:32:40.700Z,141.78
2023-07-19T11:33:40.664Z,130.74
2023-07-19T11:34:40.738Z,128.02
2023-07-19T11:35:40.686Z,126.72
2023-07-19T11:36:40.650Z,126.62
2023-07-19T11:37:40.622Z,128.36
2023-07-19T11:38:40.630Z,122.58
2023-07-19T11:39:40.596Z,110.83
2023-07-19T11:40:40.625Z,110.70
2023-07-19T11:41:40.588Z,116.43
2023-07-19T11:42:40.664Z,116.42
2023-07-19T11:43:40.591Z,114.79
2023-07-19T11:44:40.601Z,114.43
2023-07-19T11:45:40.566Z,106.41
2023-07-19T11:46:40.597Z,104.98
2023-07-19T11:47:40.561Z,107.74
2023-07-19T11:48:40.569Z,108.80
2023-07-19T11:49:40.573Z,109.06
2023-07-19T11:50:40.536Z,109.39
2023-07-19T11:51:40.533Z,104.65
2023-07-19T11:52:40.533Z,105.57
2023-07-19T11:53:40.528Z,108.78
2023-07-19T11:54:40.502Z,104.01
2023-07-19T11:55:40.504Z,95.84
2023-07-19T11:56:40.532Z,92.30
2023-07-19T11:57:40.490Z,102.59
2023-07-19T11:58:45.879Z,92.90
2023-07-19T11:59:41.553Z,93.07
2023-07-19T12:00:40.537Z,93.64
2023-07-19T12:01:40.473Z,90.06
2023-07-19T12:02:40.534Z,87.27
2023-07-19T12:03:40.463Z,84.67
2023-07-19T12:04:40.460Z,92.47
2023-07-19T12:05:40.428Z,81.43
2023-07-19T12:06:40.424Z,87.67
2023-07-19T12:07:40.422Z,91.68
2023-07-19T12:08:40.445Z,90.96
2023-07-19T12:09:40.408Z,99.56
2023-07-19T12:10:40.405Z,92.60
2023-07-19T12:11:40.404Z,88.30
2023-07-19T12:12:40.397Z,92.81
2023-07-19T12:13:40.371Z,87.92
2023-07-19T12:14:40.374Z,89.74
2023-07-19T12:15:40.385Z,90.06
2023-07-19T12:16:40.454Z,92.58
2023-07-19T12:17:40.366Z,91.18
2023-07-19T12:18:40.373Z,86.56
2023-07-19T12:19:40.359Z,88.96
2023-07-19T12:20:40.375Z,87.02
2023-07-19T12:21:40.354Z,88.48
2023-07-19T12:22:40.381Z,89.85
2023-07-19T12:24:40.294Z,92.60
2023-07-19T12:25:40.299Z,97.67
2023-07-19T12:26:40.319Z,96.19
2023-07-19T12:27:40.284Z,95.58
2023-07-19T12:28:40.270Z,96.60
2023-07-19T12:29:53.047Z,98.27
2023-07-19T12:30:41.289Z,98.36
2023-07-19T12:31:40.289Z,90.42
2023-07-19T12:32:40.298Z,86.38
2023-07-19T12:33:40.278Z,84.39